createdAt,value
2022-12-28T00:02:31.026Z,79.02
2022-12-28T00:05:03.266Z,78.42
2022-12-28T00:07:35.794Z,78.38
2022-12-28T00:10:07.267Z,78.56
2022-12-28T00:12:39.699Z,79.05
2022-12-28T00:15:14.301Z,78.89
2022-12-28T00:17:46.282Z,78.19
2022-12-28T00:20:29.058Z,76.34
2022-12-28T00:23:06.404Z,77.25
2022-12-28T00:25:39.588Z,77.83
2022-12-28T00:28:10.944Z,77.75
2022-12-28T00:30:43.612Z,77.92
2022-12-28T00:33:17.450Z,78.25
2022-12-28T00:36:16.019Z,77.45
2022-12-28T00:38:55.732Z,78.67
2022-12-28T00:41:29.344Z,79.02
2022-12-28T00:43:59.429Z,79.41
2022-12-28T00:46:26.903Z,79.18
2022-12-28T00:48:56.344Z,78.89
2022-12-28T00:51:38.283Z,78.52
2022-12-28T00:54:12.240Z,79.38
2022-12-28T00:56:46.382Z,77.98
2022-12-28T00:59:20.276Z,78.68
2022-12-28T01:02:02.327Z,77.76
2022-12-28T01:04:31.952Z,77.87
2022-12-28T01:07:01.937Z,78.07
2022-12-28T01:09:41.598Z,78.08
2022-12-28T01:12:23.971Z,78.63
2022-12-28T01:18:00.931Z,78.03
2022-12-28T01:20:47.386Z,77.53
2022-12-28T01:23:23.702Z,77.57
2022-12-28T01:26:01.773Z,78.37
2022-12-28T01:28:32.478Z,78.44
2022-12-28T01:31:13.217Z,78.91
2022-12-28T01:33:51.239Z,79.69
2022-12-28T01:36:37.702Z,78.69
2022-12-28T01:39:09.325Z,77.79
2022-12-28T01:41:41.445Z,78.90
2022-12-28T01:44:19.719Z,77.82
2022-12-28T01:47:15.033Z,77.94
2022-12-28T01:50:13.641Z,77.65
2022-12-28T01:53:09.034Z,77.81
2022-12-28T01:55:41.090Z,77.73
2022-12-28T01:58:17.506Z,77.96
2022-12-28T02:00:50.568Z,78.28
2022-12-28T02:03:38.068Z,78.99
2022-12-28T02:06:13.242Z,78.70
2022-12-28T02:08:49.909Z,79.72
2022-12-28T02:11:21.702Z,80.14
2022-12-28T02:14:04.762Z,80.11
2022-12-28T02:16:33.141Z,79.52
2022-12-28T02:19:22.304Z,80.28
2022-12-28T02:21:55.659Z,80.85
2022-12-28T02:24:32.251Z,80.82
2022-12-28T02:27:29.736Z,79.61
2022-12-28T02:30:11.168Z,79.52
2022-12-28T02:32:50.239Z,79.53
2022-12-28T02:35:44.463Z,79.38
2022-12-28T02:38:39.174Z,78.66
2022-12-28T02:41:12.818Z,79.41
2022-12-28T02:43:42.681Z,78.99
2022-12-28T02:46:40.450Z,79.83
2022-12-28T02:49:43.471Z,78.92
2022-12-28T02:52:58.100Z,79.22
2022-12-28T02:56:25.496Z,79.45
2022-12-28T02:59:22.173Z,79.97
2022-12-28T03:02:15.517Z,79.54
2022-12-28T03:05:06.440Z,79.27
2022-12-28T03:08:15.349Z,80.53
2022-12-28T03:11:02.297Z,79.65
2022-12-28T03:13:54.053Z,78.77
2022-12-28T03:16:31.089Z,79.13
2022-12-28T03:19:28.515Z,79.90
2022-12-28T03:22:21.566Z,78.84
2022-12-28T03:25:12.777Z,79.99
2022-12-28T03:28:06.653Z,79.29
2022-12-28T03:31:07.741Z,79.52
2022-12-28T03:33:50.610Z,79.59
2022-12-28T03:36:41.949Z,79.70
2022-12-28T03:39:29.195Z,79.58
2022-12-28T03:43:10.599Z,78.97
2022-12-28T03:45:56.909Z,78.98
2022-12-28T03:48:25.444Z,79.56
2022-12-28T03:50:56.795Z,80.12
2022-12-28T03:53:30.453Z,79.87
2022-12-28T03:56:22.148Z,79.46
2022-12-28T03:58:58.888Z,79.26
2022-12-28T04:01:38.210Z,79.54
2022-12-28T04:04:09.520Z,79.34
2022-12-28T04:06:37.679Z,80.18
2022-12-28T04:09:10.730Z,79.29
2022-12-28T04:11:54.127Z,80.87
2022-12-28T04:14:32.681Z,81.46
2022-12-28T04:16:59.910Z,81.05
2022-12-28T04:19:38.921Z,81.30
2022-12-28T04:22:11.586Z,81.39
2022-12-28T04:24:50.636Z,81.86
2022-12-28T04:27:21.449Z,80.35
2022-12-28T04:29:48.700Z,79.84
2022-12-28T04:32:25.293Z,80.36
2022-12-28T04:34:57.605Z,80.74
2022-12-28T04:37:41.573Z,80.45
2022-12-28T04:40:29.146Z,79.70
2022-12-28T04:43:09.071Z,80.33
2022-12-28T04:46:02.031Z,80.38
2022-12-28T04:48:29.514Z,79.86
2022-12-28T04:51:25.942Z,79.45
2022-12-28T04:53:56.655Z,80.52
2022-12-28T04:56:29.093Z,81.04
2022-12-28T04:58:59.861Z,80.71
2022-12-28T05:01:33.532Z,81.42
2022-12-28T05:04:00.757Z,81.99
2022-12-28T05:06:34.854Z,81.77
2022-12-28T05:09:25.613Z,82.53
2022-12-28T05:11:58.014Z,81.92
2022-12-28T05:14:37.382Z,82.43
2022-12-28T05:17:06.927Z,82.22
2022-12-28T05:19:34.107Z,82.26
2022-12-28T05:22:02.891Z,81.82
2022-12-28T05:24:34.386Z,80.68
2022-12-28T05:27:04.330Z,80.65
2022-12-28T05:29:36.955Z,79.87
2022-12-28T05:32:06.769Z,80.29
2022-12-28T05:34:50.003Z,80.04
2022-12-28T05:37:25.521Z,81.06
2022-12-28T05:39:54.767Z,82.08
2022-12-28T05:42:27.119Z,81.99
2022-12-28T05:45:11.690Z,81.39
2022-12-28T05:47:46.187Z,81.31
2022-12-28T05:50:19.428Z,81.65
2022-12-28T05:52:56.475Z,82.57
2022-12-28T05:55:31.989Z,82.64
2022-12-28T05:58:03.634Z,81.75
2022-12-28T06:00:35.882Z,81.55
2022-12-28T06:03:12.457Z,81.28
2022-12-28T06:05:51.669Z,81.44
2022-12-28T06:08:27.685Z,81.51
2022-12-28T06:11:14.259Z,82.65
2022-12-28T06:13:44.742Z,81.98
2022-12-28T06:16:33.540Z,81.70
2022-12-28T06:19:15.175Z,82.31
2022-12-28T06:21:47.093Z,82.51
2022-12-28T06:24:19.025Z,81.94
2022-12-28T06:26:53.723Z,81.15
2022-12-28T06:29:31.891Z,81.39
2022-12-28T06:32:04.612Z,81.57
2022-12-28T06:34:32.405Z,82.08
2022-12-28T06:37:05.640Z,82.19
2022-12-28T06:39:35.456Z,81.66
2022-12-28T06:42:02.882Z,82.30
2022-12-28T06:44:32.767Z,81.78
2022-12-28T06:47:08.054Z,81.66
2022-12-28T06:49:42.864Z,81.95
2022-12-28T06:52:20.047Z,82.88
2022-12-28T06:54:52.806Z,83.15
2022-12-28T06:57:26.861Z,82.69
2022-12-28T06:59:55.186Z,82.61
2022-12-28T07:02:30.589Z,82.10
2022-12-28T07:05:07.937Z,81.28
2022-12-28T07:07:38.071Z,81.63
2022-12-28T07:11:11.503Z,81.44
2022-12-28T07:14:20.519Z,80.43
2022-12-28T07:17:01.820Z,80.65
2022-12-28T07:19:31.754Z,81.85
2022-12-28T07:22:10.141Z,80.26
2022-12-28T07:24:52.282Z,80.10
2022-12-28T07:27:32.560Z,80.42
2022-12-28T07:30:01.136Z,80.65
2022-12-28T07:36:44.973Z,78.90
2022-12-28T07:39:27.110Z,79.30
2022-12-28T07:42:00.940Z,79.49
2022-12-28T07:44:35.475Z,79.05
2022-12-28T07:47:10.870Z,79.90
2022-12-28T07:49:43.164Z,79.93
2022-12-28T07:52:18.250Z,78.72
2022-12-28T07:54:51.319Z,78.99
2022-12-28T07:57:26.573Z,79.42
2022-12-28T07:59:58.778Z,78.66
2022-12-28T08:02:36.055Z,78.52
2022-12-28T08:05:09.163Z,77.64
2022-12-28T08:07:41.499Z,78.15
2022-12-28T08:10:22.543Z,77.30
2022-12-28T08:13:01.226Z,76.95
2022-12-28T08:15:34.328Z,76.52
2022-12-28T08:18:08.715Z,76.28
2022-12-28T08:20:49.146Z,75.87
2022-12-28T08:23:29.016Z,76.53
2022-12-28T08:26:10.699Z,76.35
2022-12-28T08:28:51.286Z,76.94
2022-12-28T08:31:40.707Z,77.08
2022-12-28T08:34:19.443Z,75.71
2022-12-28T08:36:50.138Z,76.50
2022-12-28T08:39:21.951Z,75.01
2022-12-28T08:41:56.906Z,75.48
2022-12-28T08:44:24.121Z,75.37
2022-12-28T08:46:51.312Z,74.18
2022-12-28T08:49:33.194Z,70.27
2022-12-28T08:52:16.476Z,70.69
2022-12-28T08:54:48.753Z,70.63
2022-12-28T08:57:26.005Z,71.08
2022-12-28T08:59:59.825Z,68.89
2022-12-28T09:02:35.972Z,69.18
2022-12-28T09:05:06.012Z,66.51
2022-12-28T09:07:45.570Z,65.91
2022-12-28T09:10:18.227Z,66.36
2022-12-28T09:12:46.210Z,65.43
2022-12-28T09:15:21.236Z,64.98
2022-12-28T09:17:53.425Z,65.04
2022-12-28T09:20:25.997Z,64.19
2022-12-28T09:23:01.653Z,63.68
2022-12-28T09:25:33.952Z,63.60
2022-12-28T09:28:05.247Z,62.84
2022-12-28T09:30:41.945Z,64.11
2022-12-28T09:33:50.914Z,63.04
2022-12-28T09:36:32.444Z,61.69
2022-12-28T09:39:12.153Z,61.48
2022-12-28T09:42:01.744Z,61.98
2022-12-28T09:45:03.304Z,63.08
2022-12-28T09:47:48.454Z,64.61
2022-12-28T09:50:51.742Z,65.59
2022-12-28T09:53:30.748Z,66.56
2022-12-28T09:56:36.111Z,67.04
2022-12-28T09:59:07.678Z,67.32
2022-12-28T10:01:47.938Z,67.93
2022-12-28T10:04:19.467Z,67.97
2022-12-28T10:06:46.849Z,67.48
2022-12-28T10:09:33.311Z,66.23
2022-12-28T10:12:15.575Z,65.77
2022-12-28T10:14:59.792Z,65.04
2022-12-28T10:17:34.231Z,64.14
2022-12-28T10:20:10.146Z,64.94
2022-12-28T10:22:49.691Z,63.58
2022-12-28T10:25:25.799Z,62.66
2022-12-28T10:27:54.352Z,62.42
2022-12-28T10:31:38.888Z,62.17
2022-12-28T10:34:24.464Z,62.02
2022-12-28T10:37:29.384Z,62.06
2022-12-28T10:40:18.603Z,62.53
2022-12-28T10:43:08.514Z,63.07
2022-12-28T10:45:57.577Z,63.51
2022-12-28T10:48:42.130Z,63.03
2022-12-28T10:51:21.040Z,61.98
2022-12-28T10:53:56.995Z,62.30
2022-12-28T10:56:39.562Z,62.85
2022-12-28T10:59:20.632Z,61.79
2022-12-28T11:01:52.829Z,61.75
2022-12-28T11:04:26.285Z,62.09
2022-12-28T11:07:00.530Z,62.72
2022-12-28T11:09:42.158Z,63.11
2022-12-28T11:12:28.937Z,63.75
2022-12-28T11:15:00.848Z,63.21
2022-12-28T11:18:04.199Z,63.55
2022-12-28T11:20:39.957Z,63.58
2022-12-28T11:23:15.060Z,64.33
2022-12-28T11:25:50.156Z,64.61
2022-12-28T11:28:26.545Z,64.79
2022-12-28T11:30:57.158Z,64.25
2022-12-28T11:33:52.006Z,64.36
2022-12-28T11:36:28.828Z,64.15
2022-12-28T11:38:56.739Z,64.68
2022-12-28T11:41:27.539Z,64.35
2022-12-28T11:44:05.049Z,62.11
2022-12-28T11:46:44.985Z,61.56
2022-12-28T11:49:39.010Z,61.77
2022-12-28T11:52:25.535Z,61.32
2022-12-28T11:54:59.830Z,61.38
2022-12-28T11:57:58.381Z,62.54
2022-12-28T12:00:41.577Z,62.62
2022-12-28T12:03:13.816Z,62.08
2022-12-28T12:05:45.722Z,62.98
2022-12-28T12:08:23.636Z,62.55
2022-12-28T12:11:26.862Z,63.14
2022-12-28T12:14:03.113Z,63.18
2022-12-28T12:17:13.418Z,61.59
2022-12-28T12:19:48.852Z,61.79
2022-12-28T12:22:34.364Z,62.39
2022-12-28T12:25:12.744Z,63.00
2022-12-28T12:27:53.685Z,62.88
2022-12-28T12:30:30.370Z,63.02
2022-12-28T12:33:05.122Z,62.44
2022-12-28T12:36:03.681Z,62.84
2022-12-28T12:39:28.999Z,63.38
2022-12-28T12:42:16.321Z,63.49
2022-12-28T12:45:35.437Z,62.92
2022-12-28T12:48:36.489Z,62.26
2022-12-28T12:51:59.989Z,62.64
2022-12-28T12:55:17.975Z,64.12
2022-12-28T12:58:02.231Z,64.92
2022-12-28T13:00:48.657Z,65.48
2022-12-28T13:03:28.841Z,65.75
2022-12-28T13:06:05.198Z,66.29
2022-12-28T13:08:47.239Z,66.62
2022-12-28T13:11:16.774Z,66.76
2022-12-28T13:13:54.524Z,66.89
2022-12-28T13:16:31.137Z,67.10
2022-12-28T13:19:02.526Z,67.32
2022-12-28T13:21:50.567Z,67.69
2022-12-28T13:24:26.998Z,67.98
2022-12-28T13:27:09.001Z,68.37
2022-12-28T13:29:46.565Z,68.09
2022-12-28T13:32:50.458Z,68.42
2022-12-28T13:35:25.848Z,68.69
2022-12-28T13:38:04.328Z,68.85
2022-12-28T13:40:43.192Z,68.76
2022-12-28T13:43:26.285Z,69.17
2022-12-28T13:45:58.643Z,69.30
2022-12-28T13:48:36.195Z,69.21
2022-12-28T13:51:10.773Z,69.83
2022-12-28T13:53:38.153Z,70.13
2022-12-28T13:56:21.866Z,69.95
2022-12-28T13:58:59.259Z,70.47
2022-12-28T14:01:39.893Z,70.60
2022-12-28T14:04:52.293Z,70.54
2022-12-28T14:07:17.258Z,70.98
2022-12-28T14:10:01.414Z,71.04
2022-12-28T14:12:37.263Z,71.30
2022-12-28T14:15:14.415Z,71.70
2022-12-28T14:17:52.556Z,71.72
2022-12-28T14:20:48.516Z,71.78
2022-12-28T14:23:36.522Z,71.78
2022-12-28T14:26:12.592Z,71.79
2022-12-28T14:28:47.632Z,71.65
2022-12-28T14:31:24.599Z,71.69
2022-12-28T14:34:10.795Z,71.84
2022-12-28T14:36:51.158Z,71.94
2022-12-28T14:39:41.041Z,71.97
2022-12-28T14:42:31.570Z,71.88
2022-12-28T14:46:04.900Z,72.09
2022-12-28T14:48:37.974Z,72.33
2022-12-28T14:51:33.249Z,72.53
2022-12-28T14:54:30.215Z,73.36
2022-12-28T14:57:23.325Z,74.04
2022-12-28T15:00:02.306Z,74.84
2022-12-28T15:02:39.074Z,75.30
2022-12-28T15:05:36.508Z,75.87
2022-12-28T15:08:10.081Z,76.36
2022-12-28T15:10:54.357Z,76.81
2022-12-28T15:16:22.892Z,77.65
2022-12-28T15:19:01.204Z,78.41
2022-12-28T15:21:36.268Z,79.00
2022-12-28T15:24:06.393Z,79.38
2022-12-28T15:26:43.190Z,79.41
2022-12-28T15:29:18.799Z,79.78
2022-12-28T15:31:53.847Z,80.29
2022-12-28T15:34:29.241Z,80.33
2022-12-28T15:36:59.185Z,80.52
2022-12-28T15:39:28.614Z,80.67
2022-12-28T15:42:07.583Z,81.06
2022-12-28T15:44:40.441Z,81.20
2022-12-28T15:47:16.420Z,81.61
2022-12-28T15:49:54.060Z,81.79
2022-12-28T15:52:35.306Z,81.86
2022-12-28T15:55:04.752Z,82.06
2022-12-28T15:57:35.101Z,82.04
2022-12-28T16:00:05.245Z,82.03
2022-12-28T16:02:41.411Z,81.97
2022-12-28T16:05:17.771Z,82.49
2022-12-28T16:08:00.230Z,82.54
2022-12-28T16:10:30.205Z,82.83
2022-12-28T16:13:02.759Z,82.53
2022-12-28T16:15:30.416Z,82.10
2022-12-28T16:18:09.773Z,82.10
2022-12-28T16:20:44.723Z,82.17
2022-12-28T16:23:16.406Z,82.01
2022-12-28T16:25:53.066Z,82.13
2022-12-28T16:28:21.359Z,82.39
2022-12-28T16:31:01.661Z,82.31
2022-12-28T16:33:42.822Z,82.16
2022-12-28T16:36:20.106Z,82.01
2022-12-28T16:39:10.973Z,82.09
2022-12-28T16:41:51.167Z,82.11
2022-12-28T16:44:24.971Z,82.41
2022-12-28T16:47:00.633Z,82.53
2022-12-28T16:49:30.325Z,82.61
2022-12-28T16:52:03.009Z,82.89
2022-12-28T16:54:30.315Z,83.18
2022-12-28T16:57:01.801Z,83.23
2022-12-28T16:59:29.912Z,83.54
2022-12-28T17:02:03.236Z,83.73
2022-12-28T17:04:35.748Z,83.99
2022-12-28T17:07:06.563Z,84.41
2022-12-28T17:09:50.389Z,84.52
2022-12-28T17:12:21.497Z,84.97
2022-12-28T17:15:05.048Z,84.69
2022-12-28T17:17:38.126Z,84.71
2022-12-28T17:20:17.854Z,84.36
2022-12-28T17:22:53.783Z,84.53
2022-12-28T17:25:25.484Z,84.92
2022-12-28T17:27:52.679Z,84.83
2022-12-28T17:30:23.829Z,84.86
2022-12-28T17:32:56.854Z,84.50
2022-12-28T17:35:27.651Z,84.48
2022-12-28T17:38:03.573Z,84.09
2022-12-28T17:40:40.399Z,83.93
2022-12-28T17:43:10.552Z,83.90
2022-12-28T17:45:50.623Z,84.05
2022-12-28T17:48:31.489Z,84.01
2022-12-28T17:51:12.566Z,83.78
2022-12-28T17:53:50.236Z,83.84
2022-12-28T17:56:20.129Z,83.86
2022-12-28T17:58:57.195Z,84.03
2022-12-28T18:01:41.509Z,85.12
2022-12-28T18:04:15.283Z,84.95
2022-12-28T18:06:47.603Z,85.14
2022-12-28T18:09:28.070Z,85.16
2022-12-28T18:12:06.252Z,85.18
2022-12-28T18:14:58.048Z,85.07
2022-12-28T18:17:41.810Z,85.09
2022-12-28T18:20:12.250Z,84.91
2022-12-28T18:22:52.569Z,85.58
2022-12-28T18:25:27.828Z,85.78
2022-12-28T18:28:08.056Z,85.27
2022-12-28T18:30:39.773Z,85.62
2022-12-28T18:33:09.937Z,85.70
2022-12-28T18:35:46.650Z,85.88
2022-12-28T18:38:17.057Z,86.18
2022-12-28T18:41:01.814Z,86.45
2022-12-28T18:43:36.264Z,86.84
2022-12-28T18:46:14.727Z,86.74
2022-12-28T18:48:42.181Z,86.85
2022-12-28T18:51:12.326Z,86.46
2022-12-28T18:53:40.305Z,86.36
2022-12-28T18:56:15.149Z,85.91
2022-12-28T18:58:43.808Z,85.92
2022-12-28T19:04:20.326Z,85.40
2022-12-28T19:06:52.861Z,85.19
2022-12-28T19:09:28.559Z,84.70
2022-12-28T19:11:59.191Z,84.58
2022-12-28T19:14:37.968Z,84.14
2022-12-28T19:17:14.918Z,84.08
2022-12-28T19:19:45.009Z,83.89
2022-12-28T19:22:20.334Z,83.92
2022-12-28T19:24:57.133Z,84.00
2022-12-28T19:27:28.702Z,84.23
2022-12-28T19:30:00.683Z,84.52
2022-12-28T19:32:27.848Z,84.40
2022-12-28T19:35:00.995Z,84.34
2022-12-28T19:37:35.613Z,84.66
2022-12-28T19:40:15.635Z,84.47
2022-12-28T19:42:55.184Z,84.69
2022-12-28T19:45:27.430Z,84.91
2022-12-28T19:47:57.061Z,85.06
2022-12-28T19:50:26.745Z,85.03
2022-12-28T19:52:54.595Z,85.27
2022-12-28T19:55:25.391Z,85.04
2022-12-28T19:57:59.258Z,85.14
2022-12-28T20:00:29.656Z,85.08
2022-12-28T20:02:59.242Z,85.30
2022-12-28T20:05:38.073Z,85.43
2022-12-28T20:08:13.707Z,85.60
2022-12-28T20:11:02.497Z,85.47
2022-12-28T20:13:41.367Z,85.60
2022-12-28T20:16:17.591Z,85.61
2022-12-28T20:18:49.002Z,85.79
2022-12-28T20:21:19.560Z,86.04
2022-12-28T20:23:52.196Z,85.89
2022-12-28T20:26:44.058Z,86.03
2022-12-28T20:29:13.496Z,86.20
2022-12-28T20:31:52.964Z,86.16
2022-12-28T20:34:31.980Z,86.03
2022-12-28T20:37:07.261Z,86.25
2022-12-28T20:39:58.165Z,86.35
2022-12-28T20:42:48.012Z,86.22
2022-12-28T20:45:21.276Z,86.49
2022-12-28T20:47:59.950Z,86.39
2022-12-28T20:50:34.607Z,86.35
2022-12-28T20:53:01.848Z,86.44
2022-12-28T20:55:43.341Z,86.20
2022-12-28T20:58:17.769Z,86.28
2022-12-28T21:00:49.500Z,86.19
2022-12-28T21:03:22.489Z,86.01
2022-12-28T21:05:53.034Z,85.76
2022-12-28T21:08:30.878Z,85.70
2022-12-28T21:11:48.966Z,85.59
2022-12-28T21:14:48.062Z,85.62
2022-12-28T21:17:15.323Z,85.31
2022-12-28T21:19:42.490Z,85.56
2022-12-28T21:22:16.702Z,85.50
2022-12-28T21:24:56.927Z,85.50
2022-12-28T21:27:27.973Z,85.66
2022-12-28T21:30:16.046Z,85.72
2022-12-28T21:32:59.302Z,85.72
2022-12-28T21:35:40.379Z,85.76
2022-12-28T21:38:12.673Z,85.75
2022-12-28T21:40:45.115Z,85.60
2022-12-28T21:43:17.258Z,85.77
2022-12-28T21:46:15.418Z,85.67
2022-12-28T21:48:54.070Z,85.69
2022-12-28T21:51:53.317Z,86.18
2022-12-28T21:54:23.879Z,85.49
2022-12-28T21:57:06.282Z,85.70
2022-12-28T21:59:40.166Z,85.79
2022-12-28T22:02:40.458Z,86.50
2022-12-28T22:14:09.159Z,85.99
2022-12-28T22:16:39.499Z,86.12
2022-12-28T22:19:08.257Z,85.98
2022-12-28T22:21:45.148Z,86.03
2022-12-28T22:24:17.640Z,86.03
2022-12-28T22:26:44.849Z,86.35
2022-12-28T22:29:24.183Z,86.20
2022-12-28T22:32:04.558Z,86.00
2022-12-28T22:34:42.190Z,85.86
2022-12-28T22:37:23.995Z,85.69
2022-12-28T22:40:00.748Z,85.81
2022-12-28T22:42:34.119Z,85.72
2022-12-28T22:45:11.773Z,85.97
2022-12-28T22:47:39.486Z,86.11
2022-12-28T22:50:23.243Z,86.09
2022-12-28T22:53:00.703Z,86.18
2022-12-28T22:55:35.271Z,86.45
2022-12-28T22:58:05.025Z,86.55
2022-12-28T23:00:41.075Z,86.79
2022-12-28T23:03:08.351Z,86.78
2022-12-28T23:05:35.576Z,86.77
2022-12-28T23:08:05.447Z,86.57
2022-12-28T23:10:44.315Z,86.65
2022-12-28T23:13:13.598Z,86.60
2022-12-28T23:15:54.203Z,86.59
2022-12-28T23:18:39.955Z,86.52
2022-12-28T23:21:40.583Z,86.40
2022-12-28T23:24:36.822Z,86.54
2022-12-28T23:27:21.974Z,86.54
2022-12-28T23:29:50.427Z,86.34
2022-12-28T23:32:28.176Z,86.40
2022-12-28T23:35:10.072Z,86.47
2022-12-28T23:37:41.080Z,86.48
2022-12-28T23:40:21.431Z,86.43
2022-12-28T23:43:00.286Z,86.52
2022-12-28T23:45:45.519Z,86.30
2022-12-28T23:48:13.916Z,86.42
2022-12-28T23:50:47.752Z,86.50
2022-12-28T23:53:43.699Z,86.53
2022-12-28T23:56:15.948Z,86.60
2022-12-28T23:58:48.445Z,86.87
